sensor_id;sensor_type;location;lat;lon;timestamp;pressure;altitude;pressure_sealevel;temperature;humidity
45763;BME280;37512;52.408;13.356;2023-01-15T00:01:05;99321.28;;;7.44;100.00
45763;BME280;37512;52.408;13.356;2023-01-15T00:05:06;99313.38;;;7.43;100.00
45763;BME280;37512;52.408;13.356;2023-01-15T00:09:13;99320.56;;;7.51;100.00
45763;BME280;37512;52.408;13.356;2023-01-15T00:13:14;99308.00;;;7.57;100.00
45763;BME280;37512;52.408;13.356;2023-01-15T00:17:16;99306.38;;;7.52;100.00
45763;BME280;37512;52.408;13.356;2023-01-15T00:21:18;99298.91;;;7.53;100.00
45763;BME280;37512;52.408;13.356;2023-01-15T00:25:20;99298.19;;;7.63;100.00
45763;BME280;37512;52.408;13.356;2023-01-15T00:29:40;99308.09;;;7.64;100.00
45763;BME280;37512;52.408;13.356;2023-01-15T00:33:41;99299.00;;;7.64;100.00
45763;BME280;37512;52.408;13.356;2023-01-15T00:37:43;99288.34;;;7.62;100.00
45763;BME280;37512;52.408;13.356;2023-01-15T00:41:46;99286.41;;;7.66;100.00
45763;BME280;37512;52.408;13.356;2023-01-15T00:45:47;99256.09;;;7.73;100.00
45763;BME280;37512;52.408;13.356;2023-01-15T00:49:49;99242.28;;;7.73;100.00
45763;BME280;37512;52.408;13.356;2023-01-15T00:53:51;99252.16;;;7.74;100.00
45763;BME280;37512;52.408;13.356;2023-01-15T00:57:53;99268.31;;;7.72;100.00
45763;BME280;37512;52.408;13.356;2023-01-15T01:01:54;99250.22;;;7.79;100.00
45763;BME280;37512;52.408;13.356;2023-01-15T01:06:00;99233.28;;;7.84;100.00
45763;BME280;37512;52.408;13.356;2023-01-15T01:10:02;99264.13;;;7.89;100.00
45763;BME280;37512;52.408;13.356;2023-01-15T01:14:04;99234.53;;;7.93;100.00
45763;BME280;37512;52.408;13.356;2023-01-15T01:18:05;99228.28;;;8.00;100.00
45763;BME280;37512;52.408;13.356;2023-01-15T01:22:07;99233.44;;;8.02;100.00
45763;BME280;37512;52.408;13.356;2023-01-15T01:26:08;99233.84;;;8.04;100.00
45763;BME280;37512;52.408;13.356;2023-01-15T01:30:11;99245.25;;;8.02;100.00
45763;BME280;37512;52.408;13.356;2023-01-15T01:34:13;99245.34;;;8.13;100.00
45763;BME280;37512;52.408;13.356;2023-01-15T01:38:15;99233.94;;;8.18;100.00
45763;BME280;37512;52.408;13.356;2023-01-15T01:42:17;99220.09;;;8.14;100.00
45763;BME280;37512;52.408;13.356;2023-01-15T01:46:18;99208.66;;;8.16;100.00
45763;BME280;37512;52.408;13.356;2023-01-15T01:50:20;99218.91;;;8.12;100.00
45763;BME280;37512;52.408;13.356;2023-01-15T01:54:23;99224.81;;;8.10;100.00
45763;BME280;37512;52.408;13.356;2023-01-15T01:58:28;99235.81;;;8.03;100.00
45763;BME280;37512;52.408;13.356;2023-01-15T02:02:31;99232.59;;;7.94;100.00
45763;BME280;37512;52.408;13.356;2023-01-15T02:06:33;99230.16;;;7.89;100.00
45763;BME280;37512;52.408;13.356;2023-01-15T02:10:36;99246.28;;;7.80;100.00
45763;BME280;37512;52.408;13.356;2023-01-15T02:15:09;99234.78;;;7.74;100.00
45763;BME280;37512;52.408;13.356;2023-01-15T02:27:34;99246.22;;;7.72;100.00
45763;BME280;37512;52.408;13.356;2023-01-15T02:31:38;99248.91;;;7.65;100.00
45763;BME280;37512;52.408;13.356;2023-01-15T02:35:48;99247.25;;;7.57;100.00
45763;BME280;37512;52.408;13.356;2023-01-15T02:39:54;99243.34;;;7.62;100.00
45763;BME280;37512;52.408;13.356;2023-01-15T02:43:56;99230.63;;;7.50;100.00
45763;BME280;37512;52.408;13.356;2023-01-15T02:48:09;99230.69;;;7.57;100.00
45763;BME280;37512;52.408;13.356;2023-01-15T02:52:24;99226.72;;;7.51;100.00
45763;BME280;37512;52.408;13.356;2023-01-15T02:56:30;99225.94;;;7.54;100.00
45763;BME280;37512;52.408;13.356;2023-01-15T03:00:36;99242.44;;;7.47;100.00
45763;BME280;37512;52.408;13.356;2023-01-15T03:04:43;99232.59;;;7.49;100.00
45763;BME280;37512;52.408;13.356;2023-01-15T03:08:47;99234.22;;;7.50;100.00
45763;BME280;37512;52.408;13.356;2023-01-15T03:12:56;99223.47;;;7.42;100.00
45763;BME280;37512;52.408;13.356;2023-01-15T03:17:11;99229.78;;;7.42;100.00
45763;BME280;37512;52.408;13.356;2023-01-15T03:21:20;99229.84;;;7.49;100.00
45763;BME280;37512;52.408;13.356;2023-01-15T03:25:25;99232.19;;;7.47;100.00
45763;BME280;37512;52.408;13.356;2023-01-15T03:29:33;99219.56;;;7.46;100.00
45763;BME280;37512;52.408;13.356;2023-01-15T03:33:37;99237.75;;;7.51;100.00
45763;BME280;37512;52.408;13.356;2023-01-15T03:37:39;99229.06;;;7.49;100.00
45763;BME280;37512;52.408;13.356;2023-01-15T03:41:49;99230.72;;;7.61;100.00
45763;BME280;37512;52.408;13.356;2023-01-15T03:45:54;99239.75;;;7.54;100.00
45763;BME280;37512;52.408;13.356;2023-01-15T03:54:10;99242.13;;;7.56;100.00
45763;BME280;37512;52.408;13.356;2023-01-15T04:02:21;99254.72;;;7.53;100.00
45763;BME280;37512;52.408;13.356;2023-01-15T04:06:27;99241.34;;;7.55;100.00
45763;BME280;37512;52.408;13.356;2023-01-15T04:10:29;99243.72;;;7.57;100.00
45763;BME280;37512;52.408;13.356;2023-01-15T04:14:31;99245.75;;;7.63;100.00
45763;BME280;37512;52.408;13.356;2023-01-15T04:18:33;99308.34;;;7.52;100.00
45763;BME280;37512;52.408;13.356;2023-01-15T04:22:35;99306.19;;;7.01;100.00
45763;BME280;37512;52.408;13.356;2023-01-15T04:26:36;99311.31;;;6.99;100.00
45763;BME280;37512;52.408;13.356;2023-01-15T04:30:38;99328.16;;;6.37;100.00
45763;BME280;37512;52.408;13.356;2023-01-15T04:34:39;99318.25;;;5.86;100.00
45763;BME280;37512;52.408;13.356;2023-01-15T04:38:41;99313.84;;;5.58;100.00
45763;BME280;37512;52.408;13.356;2023-01-15T04:42:42;99318.84;;;5.53;100.00
45763;BME280;37512;52.408;13.356;2023-01-15T04:47:02;99339.09;;;5.21;100.00
45763;BME280;37512;52.408;13.356;2023-01-15T04:51:05;99351.09;;;5.33;100.00
45763;BME280;37512;52.408;13.356;2023-01-15T04:55:07;99334.03;;;5.04;100.00
45763;BME280;37512;52.408;13.356;2023-01-15T04:59:09;99336.91;;;4.92;100.00
45763;BME280;37512;52.408;13.356;2023-01-15T05:03:10;99333.28;;;4.88;100.00
45763;BME280;37512;52.408;13.356;2023-01-15T05:07:12;99353.53;;;4.79;100.00
45763;BME280;37512;52.408;13.356;2023-01-15T05:11:13;99349.31;;;4.66;100.00
45763;BME280;37512;52.408;13.356;2023-01-15T05:15:15;99349.03;;;4.71;100.00
45763;BME280;37512;52.408;13.356;2023-01-15T05:19:16;99349.31;;;4.66;100.00
45763;BME280;37512;52.408;13.356;2023-01-15T05:23:18;99343.44;;;4.84;100.00
45763;BME280;37512;52.408;13.356;2023-01-15T05:27:20;99354.63;;;4.75;100.00
45763;BME280;37512;52.408;13.356;2023-01-15T05:31:22;99347.84;;;4.53;100.00
45763;BME280;37512;52.408;13.356;2023-01-15T05:35:24;99359.38;;;4.78;100.00
45763;BME280;37512;52.408;13.356;2023-01-15T05:39:25;99365.25;;;4.76;100.00
45763;BME280;37512;52.408;13.356;2023-01-15T05:43:27;99346.09;;;4.80;100.00
45763;BME280;37512;52.408;13.356;2023-01-15T05:47:28;99350.31;;;4.93;100.00
45763;BME280;37512;52.408;13.356;2023-01-15T05:51:30;99359.53;;;4.66;100.00
45763;BME280;37512;52.408;13.356;2023-01-15T05:55:32;99357.00;;;4.76;100.00
45763;BME280;37512;52.408;13.356;2023-01-15T05:59:33;99349.72;;;4.84;100.00
45763;BME280;37512;52.408;13.356;2023-01-15T06:03:35;99338.47;;;4.73;100.00
45763;BME280;37512;52.408;13.356;2023-01-15T06:07:37;99344.50;;;4.79;100.00
45763;BME280;37512;52.408;13.356;2023-01-15T06:11:39;99344.38;;;4.91;100.00
45763;BME280;37512;52.408;13.356;2023-01-15T06:15:41;99335.44;;;4.78;100.00
45763;BME280;37512;52.408;13.356;2023-01-15T06:19:43;99349.38;;;4.70;100.00
45763;BME280;37512;52.408;13.356;2023-01-15T06:23:45;99351.50;;;4.76;100.00
45763;BME280;37512;52.408;13.356;2023-01-15T06:27:46;99346.09;;;4.80;100.00
45763;BME280;37512;52.408;13.356;2023-01-15T06:31:49;99346.13;;;4.64;100.00
45763;BME280;37512;52.408;13.356;2023-01-15T06:35:51;99357.28;;;4.71;100.00
45763;BME280;37512;52.408;13.356;2023-01-15T06:39:52;99362.63;;;4.64;100.00
45763;BME280;37512;52.408;13.356;2023-01-15T06:43:54;99365.94;;;4.54;100.00
45763;BME280;37512;52.408;13.356;2023-01-15T06:48:14;99372.19;;;4.70;100.00
45763;BME280;37512;52.408;13.356;2023-01-15T06:52:15;99364.75;;;4.55;100.00
45763;BME280;37512;52.408;13.356;2023-01-15T06:56:17;99364.47;;;4.60;100.00
45763;BME280;37512;52.408;13.356;2023-01-15T07:00:18;99375.94;;;4.46;100.00
45763;BME280;37512;52.408;13.356;2023-01-15T07:04:20;99373.09;;;4.58;100.00
45763;BME280;37512;52.408;13.356;2023-01-15T07:08:21;99369.72;;;4.49;100.00
45763;BME280;37512;52.408;13.356;2023-01-15T07:12:23;99381.75;;;4.60;100.00
45763;BME280;37512;52.408;13.356;2023-01-15T07:16:24;99397.19;;;4.49;100.00
45763;BME280;37512;52.408;13.356;2023-01-15T07:20:29;99403.13;;;4.51;100.00
45763;BME280;37512;52.408;13.356;2023-01-15T07:24:30;99404.81;;;4.40;100.00
45763;BME280;37512;52.408;13.356;2023-01-15T07:28:32;99396.66;;;4.59;100.00
45763;BME280;37512;52.408;13.356;2023-01-15T07:32:33;99400.13;;;4.56;100.00
45763;BME280;37512;52.408;13.356;2023-01-15T07:36:35;99408.63;;;4.35;100.00
45763;BME280;37512;52.408;13.356;2023-01-15T07:40:37;99398.38;;;4.32;100.00
45763;BME280;37512;52.408;13.356;2023-01-15T07:44:39;99396.78;;;4.31;100.00
45763;BME280;37512;52.408;13.356;2023-01-15T07:48:59;99415.47;;;4.42;100.00
45763;BME280;37512;52.408;13.356;2023-01-15T07:53:18;99422.66;;;4.30;100.00
45763;BME280;37512;52.408;13.356;2023-01-15T07:57:21;99426.28;;;4.34;100.00
45763;BME280;37512;52.408;13.356;2023-01-15T08:01:22;99420.44;;;4.52;100.00
45763;BME280;37512;52.408;13.356;2023-01-15T08:05:24;99431.59;;;4.27;100.00
45763;BME280;37512;52.408;13.356;2023-01-15T08:09:26;99435.31;;;4.35;100.00
45763;BME280;37512;52.408;13.356;2023-01-15T08:13:28;99414.69;;;4.41;100.00
45763;BME280;37512;52.408;13.356;2023-01-15T08:17:49;99402.28;;;4.47;100.00
45763;BME280;37512;52.408;13.356;2023-01-15T08:21:51;99391.81;;;4.53;100.00
45763;BME280;37512;52.408;13.356;2023-01-15T08:25:53;99400.84;;;4.37;100.00
45763;BME280;37512;52.408;13.356;2023-01-15T08:29:54;99407.47;;;4.68;100.00
45763;BME280;37512;52.408;13.356;2023-01-15T08:33:57;99408.63;;;4.51;100.00
45763;BME280;37512;52.408;13.356;2023-01-15T08:38:06;99414.75;;;4.60;100.00
45763;BME280;37512;52.408;13.356;2023-01-15T08:42:07;99408.38;;;4.56;100.00
45763;BME280;37512;52.408;13.356;2023-01-15T08:46:09;99418.66;;;4.59;100.00
45763;BME280;37512;52.408;13.356;2023-01-15T08:50:11;99417.59;;;4.64;100.00
45763;BME280;37512;52.408;13.356;2023-01-15T08:54:13;99415.09;;;4.75;100.00
45763;BME280;37512;52.408;13.356;2023-01-15T08:58:15;99401.25;;;4.71;100.00
45763;BME280;37512;52.408;13.356;2023-01-15T09:02:16;99415.72;;;4.68;100.00
45763;BME280;37512;52.408;13.356;2023-01-15T09:06:18;99428.66;;;4.84;100.00
45763;BME280;37512;52.408;13.356;2023-01-15T09:10:20;99435.03;;;4.72;100.00
45763;BME280;37512;52.408;13.356;2023-01-15T09:14:22;99442.03;;;4.85;100.00
45763;BME280;37512;52.408;13.356;2023-01-15T09:18:43;99435.41;;;4.70;100.00
45763;BME280;37512;52.408;13.356;2023-01-15T09:22:45;99438.41;;;4.65;100.00
45763;BME280;37512;52.408;13.356;2023-01-15T09:26:47;99433.16;;;4.76;100.00
45763;BME280;37512;52.408;13.356;2023-01-15T09:30:49;99439.66;;;4.84;100.00
45763;BME280;37512;52.408;13.356;2023-01-15T09:34:51;99440.16;;;4.89;100.00
45763;BME280;37512;52.408;13.356;2023-01-15T09:38:56;99444.56;;;4.94;100.00
45763;BME280;37512;52.408;13.356;2023-01-15T09:43:05;99454.84;;;4.97;100.00
45763;BME280;37512;52.408;13.356;2023-01-15T09:47:10;99464.34;;;4.99;100.00
45763;BME280;37512;52.408;13.356;2023-01-15T09:55:37;99440.75;;;4.98;100.00
45763;BME280;37512;52.408;13.356;2023-01-15T09:59:45;99443.25;;;5.23;100.00
45763;BME280;37512;52.408;13.356;2023-01-15T10:03:51;99441.69;;;5.80;100.00
45763;BME280;37512;52.408;13.356;2023-01-15T10:08:00;99444.22;;;5.50;100.00
45763;BME280;37512;52.408;13.356;2023-01-15T10:12:15;99435.09;;;5.46;100.00
45763;BME280;37512;52.408;13.356;2023-01-15T10:16:35;99446.75;;;5.39;100.00
45763;BME280;37512;52.408;13.356;2023-01-15T10:21:05;99428.41;;;5.47;100.00
45763;BME280;37512;52.408;13.356;2023-01-15T10:25:15;99424.81;;;5.43;100.00
45763;BME280;37512;52.408;13.356;2023-01-15T10:29:43;99428.41;;;5.47;100.00
45763;BME280;37512;52.408;13.356;2023-01-15T10:42:31;99426.34;;;5.60;100.00
45763;BME280;37512;52.408;13.356;2023-01-15T10:46:38;99425.59;;;5.63;100.00
45763;BME280;37512;52.408;13.356;2023-01-15T10:50:41;99427.91;;;5.61;100.00
45763;BME280;37512;52.408;13.356;2023-01-15T10:55:41;99426.25;;;5.56;100.00
45763;BME280;37512;52.408;13.356;2023-01-15T11:00:05;99439.22;;;5.75;100.00
45763;BME280;37512;52.408;13.356;2023-01-15T11:03:42;99453.50;;;5.61;100.00
45763;BME280;37512;52.408;13.356;2023-01-15T11:07:47;99441.59;;;5.77;100.00
45763;BME280;37512;52.408;13.356;2023-01-15T11:12:27;99454.97;;;5.75;100.00
45763;BME280;37512;52.408;13.356;2023-01-15T11:16:50;99449.38;;;5.71;100.00
45763;BME280;37512;52.408;13.356;2023-01-15T11:21:13;99446.19;;;5.69;100.00
45763;BME280;37512;52.408;13.356;2023-01-15T11:25:26;99442.25;;;5.70;100.00
45763;BME280;37512;52.408;13.356;2023-01-15T11:29:35;99450.59;;;5.74;100.00
45763;BME280;37512;52.408;13.356;2023-01-15T11:33:38;99454.00;;;5.67;100.00
45763;BME280;37512;52.408;13.356;2023-01-15T11:37:40;99452.84;;;5.68;100.00
45763;BME280;37512;52.408;13.356;2023-01-15T11:41:42;99442.59;;;5.88;100.00
45763;BME280;37512;52.408;13.356;2023-01-15T11:46:02;99452.59;;;5.77;100.00
45763;BME280;37512;52.408;13.356;2023-01-15T11:50:22;99446.81;;;5.82;100.00
45763;BME280;37512;52.408;13.356;2023-01-15T11:54:43;99424.44;;;5.64;100.00
45763;BME280;37512;52.408;13.356;2023-01-15T11:58:53;99440.19;;;5.63;100.00
45763;BME280;37512;52.408;13.356;2023-01-15T12:03:04;99441.03;;;5.68;100.00
45763;BME280;37512;52.408;13.356;2023-01-15T12:07:12;99428.00;;;5.84;100.00
45763;BME280;37512;52.408;13.356;2023-01-15T12:15:55;99432.75;;;5.68;100.00
45763;BME280;37512;52.408;13.356;2023-01-15T12:24:40;99447.19;;;5.80;100.00
45763;BME280;37512;52.408;13.356;2023-01-15T12:29:23;99455.09;;;5.82;100.00
45763;BME280;37512;52.408;13.356;2023-01-15T12:33:36;99448.06;;;5.84;100.00
45763;BME280;37512;52.408;13.356;2023-01-15T12:37:48;99433.97;;;5.90;100.00
45763;BME280;37512;52.408;13.356;2023-01-15T12:41:55;99424.31;;;5.96;100.00
45763;BME280;37512;52.408;13.356;2023-01-15T12:46:24;99426.69;;;5.78;100.00
45763;BME280;37512;52.408;13.356;2023-01-15T12:54:48;99422.75;;;5.79;100.00
45763;BME280;37512;52.408;13.356;2023-01-15T12:59:00;99437.69;;;5.78;100.00
45763;BME280;37512;52.408;13.356;2023-01-15T13:03:29;99426.50;;;5.90;100.00
45763;BME280;37512;52.408;13.356;2023-01-15T13:07:37;99423.03;;;5.93;100.00
45763;BME280;37512;52.408;13.356;2023-01-15T13:11:41;99427.56;;;5.82;100.00
45763;BME280;37512;52.408;13.356;2023-01-15T13:33:28;99477.38;;;5.77;100.00
45763;BME280;37512;52.408;13.356;2023-01-15T13:37:33;99427.50;;;6.21;100.00
45763;BME280;37512;52.408;13.356;2023-01-15T13:41:36;99416.59;;;6.05;100.00
45763;BME280;37512;52.408;13.356;2023-01-15T13:45:56;99420.81;;;5.79;100.00
45763;BME280;37512;52.408;13.356;2023-01-15T13:50:02;99420.91;;;5.63;100.00
45763;BME280;37512;52.408;13.356;2023-01-15T13:54:12;99431.84;;;5.60;100.00
45763;BME280;37512;52.408;13.356;2023-01-15T13:58:23;99435.25;;;5.73;100.00
45763;BME280;37512;52.408;13.356;2023-01-15T14:06:41;99437.72;;;6.20;100.00
45763;BME280;37512;52.408;13.356;2023-01-15T14:10:43;99438.44;;;6.17;100.00
45763;BME280;37512;52.408;13.356;2023-01-15T14:14:55;99454.34;;;5.85;100.00
45763;BME280;37512;52.408;13.356;2023-01-15T14:19:15;99463.66;;;5.96;100.00
45763;BME280;37512;52.408;13.356;2023-01-15T14:23:47;99472.44;;;6.25;100.00
45763;BME280;37512;52.408;13.356;2023-01-15T14:37:02;99499.34;;;5.93;100.00
45763;BME280;37512;52.408;13.356;2023-01-15T14:41:04;99519.47;;;5.58;100.00
45763;BME280;37512;52.408;13.356;2023-01-15T14:49:44;99520.22;;;5.55;100.00
45763;BME280;37512;52.408;13.356;2023-01-15T14:54:00;99547.69;;;5.35;100.00
45763;BME280;37512;52.408;13.356;2023-01-15T14:58:05;99545.72;;;5.36;100.00
45763;BME280;37512;52.408;13.356;2023-01-15T15:02:17;99561.97;;;5.41;100.00
45763;BME280;37512;52.408;13.356;2023-01-15T15:06:21;99562.50;;;5.31;100.00
45763;BME280;37512;52.408;13.356;2023-01-15T15:10:26;99541.97;;;5.09;100.00
45763;BME280;37512;52.408;13.356;2023-01-15T15:14:35;99539.00;;;5.17;100.00
45763;BME280;37512;52.408;13.356;2023-01-15T15:18:42;99554.28;;;5.15;100.00
45763;BME280;37512;52.408;13.356;2023-01-15T15:22:46;99541.78;;;5.01;100.00
45763;BME280;37512;52.408;13.356;2023-01-15T15:26:50;99545.19;;;4.79;100.00
45763;BME280;37512;52.408;13.356;2023-01-15T15:30:52;99550.75;;;4.67;100.00
45763;BME280;37512;52.408;13.356;2023-01-15T15:34:57;99543.22;;;4.79;100.00
45763;BME280;37512;52.408;13.356;2023-01-15T15:43:39;99539.56;;;4.75;100.00
45763;BME280;37512;52.408;13.356;2023-01-15T15:48:20;99551.19;;;4.53;100.00
45763;BME280;37512;52.408;13.356;2023-01-15T15:52:43;99534.69;;;4.53;100.00
45763;BME280;37512;52.408;13.356;2023-01-15T16:01:10;99538.59;;;4.52;100.00
45763;BME280;37512;52.408;13.356;2023-01-15T16:09:23;99537.97;;;4.43;100.00
45763;BME280;37512;52.408;13.356;2023-01-15T16:13:29;99527.66;;;4.39;100.00
45763;BME280;37512;52.408;13.356;2023-01-15T16:17:33;99531.03;;;4.49;100.00
45763;BME280;37512;52.408;13.356;2023-01-15T16:21:36;99524.91;;;4.39;100.00
45763;BME280;37512;52.408;13.356;2023-01-15T16:25:40;99536.63;;;4.36;100.00
45763;BME280;37512;52.408;13.356;2023-01-15T16:29:47;99536.00;;;4.43;100.00
45763;BME280;37512;52.408;13.356;2023-01-15T16:33:55;99533.88;;;4.36;100.00
45763;BME280;37512;52.408;13.356;2023-01-15T16:37:59;99532.78;;;4.25;100.00
45763;BME280;37512;52.408;13.356;2023-01-15T16:42:01;99520.75;;;4.30;100.00
45763;BME280;37512;52.408;13.356;2023-01-15T16:46:06;99525.44;;;4.29;100.00
45763;BME280;37512;52.408;13.356;2023-01-15T16:58:36;99523.84;;;4.28;100.00
45763;BME280;37512;52.408;13.356;2023-01-15T17:02:43;99532.06;;;4.28;100.00
45763;BME280;37512;52.408;13.356;2023-01-15T17:06:54;99530.31;;;4.20;100.00
45763;BME280;37512;52.408;13.356;2023-01-15T17:10:59;99538.72;;;4.27;100.00
45763;BME280;37512;52.408;13.356;2023-01-15T17:19:15;99511.09;;;4.36;100.00
45763;BME280;37512;52.408;13.356;2023-01-15T17:23:22;99522.16;;;4.24;100.00
45763;BME280;37512;52.408;13.356;2023-01-15T17:27:27;99519.06;;;4.25;100.00
45763;BME280;37512;52.408;13.356;2023-01-15T17:31:33;99508.16;;;4.29;100.00
45763;BME280;37512;52.408;13.356;2023-01-15T17:35:37;99528.88;;;4.26;100.00
45763;BME280;37512;52.408;13.356;2023-01-15T17:39:38;99527.38;;;4.29;100.00
45763;BME280;37512;52.408;13.356;2023-01-15T17:43:40;99511.34;;;4.31;100.00
45763;BME280;37512;52.408;13.356;2023-01-15T17:47:42;99527.94;;;4.34;100.00
45763;BME280;37512;52.408;13.356;2023-01-15T17:51:43;99536.53;;;4.49;100.00
45763;BME280;37512;52.408;13.356;2023-01-15T17:55:45;99548.50;;;4.40;100.00
45763;BME280;37512;52.408;13.356;2023-01-15T18:00:05;99521.03;;;4.40;100.00
45763;BME280;37512;52.408;13.356;2023-01-15T18:04:31;99525.09;;;4.47;100.00
45763;BME280;37512;52.408;13.356;2023-01-15T18:08:54;99528.72;;;4.35;100.00
45763;BME280;37512;52.408;13.356;2023-01-15T18:12:57;99538.91;;;4.34;100.00
45763;BME280;37512;52.408;13.356;2023-01-15T18:17:00;99546.81;;;4.36;100.00
45763;BME280;37512;52.408;13.356;2023-01-15T18:21:02;99547.88;;;4.31;100.00
45763;BME280;37512;52.408;13.356;2023-01-15T18:25:04;99554.50;;;4.30;100.00
45763;BME280;37512;52.408;13.356;2023-01-15T18:29:08;99542.56;;;4.38;100.00
45763;BME280;37512;52.408;13.356;2023-01-15T18:33:10;99556.03;;;4.44;100.00
45763;BME280;37512;52.408;13.356;2023-01-15T18:37:11;99553.19;;;4.40;100.00
45763;BME280;37512;52.408;13.356;2023-01-15T18:41:17;99546.91;;;4.39;100.00
45763;BME280;37512;52.408;13.356;2023-01-15T18:45:49;99551.72;;;4.43;100.00
45763;BME280;37512;52.408;13.356;2023-01-15T18:50:09;99569.78;;;4.44;100.00
45763;BME280;37512;52.408;13.356;2023-01-15T18:54:11;99549.19;;;4.37;100.00
45763;BME280;37512;52.408;13.356;2023-01-15T18:58:13;99544.16;;;4.39;100.00
45763;BME280;37512;52.408;13.356;2023-01-15T19:02:15;99557.44;;;4.37;100.00
45763;BME280;37512;52.408;13.356;2023-01-15T19:06:18;99553.56;;;4.38;100.00
45763;BME280;37512;52.408;13.356;2023-01-15T19:10:19;99560.63;;;4.39;100.00
45763;BME280;37512;52.408;13.356;2023-01-15T19:14:24;99568.97;;;4.43;100.00
45763;BME280;37512;52.408;13.356;2023-01-15T19:18:46;99575.97;;;4.40;100.00
45763;BME280;37512;52.408;13.356;2023-01-15T19:22:53;99564.16;;;4.40;100.00
45763;BME280;37512;52.408;13.356;2023-01-15T19:27:06;99555.06;;;4.36;100.00
45763;BME280;37512;52.408;13.356;2023-01-15T19:31:08;99560.09;;;4.34;100.00
45763;BME280;37512;52.408;13.356;2023-01-15T19:35:29;99569.78;;;4.44;100.00
45763;BME280;37512;52.408;13.356;2023-01-15T19:39:31;99564.72;;;4.46;100.00
45763;BME280;37512;52.408;13.356;2023-01-15T19:43:32;99562.69;;;4.43;100.00
45763;BME280;37512;52.408;13.356;2023-01-15T19:47:52;99566.13;;;4.39;100.00
45763;BME280;37512;52.408;13.356;2023-01-15T19:52:12;99560.38;;;4.45;100.00
45763;BME280;37512;52.408;13.356;2023-01-15T19:56:32;99568.38;;;4.50;100.00
45763;BME280;37512;52.408;13.356;2023-01-15T20:00:36;99568.09;;;4.39;100.00
45763;BME280;37512;52.408;13.356;2023-01-15T20:04:38;99577.13;;;4.39;100.00
45763;BME280;37512;52.408;13.356;2023-01-15T20:08:39;99579.34;;;4.34;100.00
45763;BME280;37512;52.408;13.356;2023-01-15T20:12:41;99564.88;;;4.37;100.00
45763;BME280;37512;52.408;13.356;2023-01-15T20:17:01;99573.47;;;4.35;100.00
45763;BME280;37512;52.408;13.356;2023-01-15T20:21:03;99568.03;;;4.23;100.00
45763;BME280;37512;52.408;13.356;2023-01-15T20:25:06;99572.69;;;4.35;100.00
45763;BME280;37512;52.408;13.356;2023-01-15T20:29:07;99570.06;;;4.26;100.00
45763;BME280;37512;52.408;13.356;2023-01-15T20:33:09;99570.34;;;4.21;100.00
45763;BME280;37512;52.408;13.356;2023-01-15T20:37:11;99562.69;;;4.14;100.00
45763;BME280;37512;52.408;13.356;2023-01-15T20:41:12;99592.66;;;4.19;100.00
45763;BME280;37512;52.408;13.356;2023-01-15T20:45:33;99570.91;;;4.27;100.00
45763;BME280;37512;52.408;13.356;2023-01-15T20:49:34;99574.63;;;4.34;100.00
45763;BME280;37512;52.408;13.356;2023-01-15T20:53:36;99568.31;;;4.18;100.00
45763;BME280;37512;52.408;13.356;2023-01-15T20:57:39;99563.00;;;4.25;100.00
45763;BME280;37512;52.408;13.356;2023-01-15T21:01:41;99578.69;;;4.25;100.00
45763;BME280;37512;52.408;13.356;2023-01-15T21:05:43;99571.88;;;4.34;100.00
45763;BME280;37512;52.408;13.356;2023-01-15T21:09:45;99585.06;;;4.29;100.00
45763;BME280;37512;52.408;13.356;2023-01-15T21:13:46;99566.66;;;4.29;100.00
45763;BME280;37512;52.408;13.356;2023-01-15T21:17:48;99570.53;;;4.28;100.00
45763;BME280;37512;52.408;13.356;2023-01-15T21:21:50;99571.16;;;4.37;100.00
45763;BME280;37512;52.408;13.356;2023-01-15T21:25:58;99576.72;;;4.25;100.00
45763;BME280;37512;52.408;13.356;2023-01-15T21:29:59;99578.69;;;4.25;100.00
45763;BME280;37512;52.408;13.356;2023-01-15T21:34:01;99578.16;;;4.35;100.00
45763;BME280;37512;52.408;13.356;2023-01-15T21:38:05;99570.38;;;4.37;100.00
45763;BME280;37512;52.408;13.356;2023-01-15T21:42:10;99580.13;;;4.34;100.00
45763;BME280;37512;52.408;13.356;2023-01-15T21:46:33;99591.38;;;4.29;100.00
45763;BME280;37512;52.408;13.356;2023-01-15T21:50:35;99576.81;;;4.29;100.00
45763;BME280;37512;52.408;13.356;2023-01-15T21:54:38;99580.72;;;4.28;100.00
45763;BME280;37512;52.408;13.356;2023-01-15T21:58:40;99586.41;;;4.35;100.00
45763;BME280;37512;52.408;13.356;2023-01-15T22:02:41;99584.38;;;4.32;100.00
45763;BME280;37512;52.408;13.356;2023-01-15T22:06:43;99587.81;;;4.29;100.00
45763;BME280;37512;52.408;13.356;2023-01-15T22:10:45;99590.06;;;4.11;100.00
45763;BME280;37512;52.408;13.356;2023-01-15T22:14:47;99568.19;;;4.14;100.00
45763;BME280;37512;52.408;13.356;2023-01-15T22:18:49;99581.72;;;4.07;100.00
45763;BME280;37512;52.408;13.356;2023-01-15T22:22:52;99574.06;;;4.13;100.00
45763;BME280;37512;52.408;13.356;2023-01-15T22:26:54;99567.44;;;4.02;100.00
45763;BME280;37512;52.408;13.356;2023-01-15T22:30:56;99579.47;;;3.97;100.00
45763;BME280;37512;52.408;13.356;2023-01-15T22:34:57;99576.16;;;3.91;100.00
45763;BME280;37512;52.408;13.356;2023-01-15T22:38:59;99568.50;;;3.97;100.00
45763;BME280;37512;52.408;13.356;2023-01-15T22:43:00;99576.00;;;3.72;100.00
45763;BME280;37512;52.408;13.356;2023-01-15T22:47:02;99579.88;;;3.83;100.00
45763;BME280;37512;52.408;13.356;2023-01-15T22:51:04;99572.44;;;3.84;100.00
45763;BME280;37512;52.408;13.356;2023-01-15T22:55:06;99567.88;;;3.75;100.00
45763;BME280;37512;52.408;13.356;2023-01-15T22:59:09;99575.19;;;3.84;100.00
45763;BME280;37512;52.408;13.356;2023-01-15T23:03:11;99573.56;;;3.83;100.00
45763;BME280;37512;52.408;13.356;2023-01-15T23:07:14;99572.44;;;3.84;100.00
45763;BME280;37512;52.408;13.356;2023-01-15T23:11:16;99573.16;;;3.96;100.00